Aeroporto :







RITROVATECI SU...

 
LOGIN :

Iscrizione | Disclaimer

   EN    FR    IT 

 









Sommario :    VFR   VFR Marginale   IFR   IFR Intensivo   IFR Molto Intensivo
Visibilità : 
Base nubi : 
>= 8 km
>= 3000ft
5 / 8 km
1000 / 3000 ft
1500m / 5 km
500 / 1000 ft
800 / 1500m
200 / 500 ft
< 800m
< 200 ft
Simboli :   Temporali  Nebbia  Neve Forte  Precipitazioni Forti  Vento > 20 kt






- Altitudine del aeroporto : 461 ft
- Codice IATA : YYT


CYYT - St John's Int

ULTIMO METAR :
  • 270800Z 16005KT 10SM -DZ OVC004 03/03 A3032 RMK SF8 SLP277

METARs OBSOLETI :
  • 270729Z 15004KT 3SM -DZ BR OVC003 03/03 A3033 RMK SF8 SLP280
  • 270642Z 14002KT 1/2SM R29/P6000FT/D R16/P6000FT/N -DZ FG VV002 03/02 A3035 RMK FG8 SLP287

TAF AMD TAF CYYT
Valido dal 27 a 08 ore il 28 a 06 ore UTC


270805Z 2708/2806 16005KT 3/8SM FG VV002
TEMPO 2708/2712 P6SM -DZ OVC006
FM271200 24012G22KT P6SM SCT005 BKN012
TEMPO 2712/2718 4SM -DZ BR BKN005 OVC012
BECMG 2712/2714 24015G25KT
FM271800 24020G30KT P6SM SCT008 BKN012
FM272100 23020G30KT P6SM SCT015 BKN030
FM280400 21015G25KT P6SM SCT005 BKN015 RMK NXT FCST BY 271200Z
FIR CZQX / America del Nord



MetMap, La meteo Aeronautica in un colpo d'occhio ! - Copyright ORBIFLY Dicembre 2007 - Disclaimer

ORBIFLY MET'MAP TEAM :

Programmazione e sviluppo : Alexandra Zaïnal
Concezione : Baudouin d'Aumeries
Aiuto per la programmazione : Marc-Olivier Méhu
Supporto tecnico e logistico : Manuel Goepfert
Aiuto per la traduzione : Arnaldo La Scala

Contatto : metmap@orbifly.com




FONTI E CREDITI :

   NOAA